createdAt,value
2022-12-23T09:29:14.924Z,62.10
2022-12-23T09:44:38.491Z,63.90
2022-12-23T10:00:00.336Z,62.30
2022-12-23T10:15:16.672Z,61.30
2022-12-23T10:45:59.401Z,59.00
2022-12-23T11:01:14.938Z,59.10
2022-12-23T11:16:24.832Z,57.50
2022-12-23T11:31:35.330Z,57.00
2022-12-23T11:46:39.960Z,56.70
2022-12-23T12:01:48.824Z,57.40
2022-12-23T12:16:58.283Z,55.90
2022-12-23T12:32:03.794Z,56.40
2022-12-23T12:47:44.693Z,56.40
2022-12-23T13:02:54.161Z,56.20
2022-12-23T13:18:17.638Z,56.10
2022-12-23T13:33:26.941Z,55.70
2022-12-23T13:48:41.018Z,55.70
2022-12-23T14:03:48.548Z,55.50
2022-12-23T14:19:13.420Z,55.50
2022-12-23T14:34:32.114Z,55.80
2022-12-23T14:49:45.429Z,55.60
2022-12-23T15:04:55.690Z,55.60
2022-12-23T15:20:14.097Z,55.50
2022-12-23T15:35:24.556Z,55.40
2022-12-23T15:50:30.038Z,55.30
2022-12-23T16:05:36.712Z,55.30
2022-12-23T16:20:44.668Z,55.20
2022-12-23T16:35:49.327Z,55.40
2022-12-23T16:50:54.803Z,55.30
2022-12-23T17:05:59.441Z,55.80
2022-12-23T17:21:04.424Z,54.70
2022-12-23T17:36:11.106Z,55.20
2022-12-23T17:51:16.859Z,54.30
2022-12-23T18:06:22.915Z,54.20
2022-12-23T18:21:29.280Z,54.00
2022-12-23T18:36:34.825Z,53.90
2022-12-23T18:51:39.371Z,53.80
2022-12-23T19:06:43.927Z,53.90
2022-12-23T19:21:48.579Z,53.90
2022-12-23T19:36:53.168Z,53.80
2022-12-23T19:51:57.699Z,53.90
2022-12-23T20:07:02.256Z,53.80
2022-12-23T20:22:06.884Z,53.90
2022-12-23T20:37:11.720Z,53.70
2022-12-23T20:52:16.321Z,53.70
2022-12-23T21:07:20.963Z,53.70
2022-12-23T21:22:25.491Z,53.60
2022-12-23T21:37:30.509Z,53.70
